Time;durP1;ratioP1;P1;durP2;ratioP2;P2;SDS_P1;SDS_P2;PMS_P1;PMS_P2;Temp;Humidity;BMP_temperature;BMP_pressure;BME280_temperature;BME280_humidity;BME280_pressure;Samples;Min_cycle;Max_cycle;Signal;HPM_P1;HPM_P2
2022/06/11 00:02:17;;;;;;;14.65;12.70;;;;;;;18.70;52.03;100804.59;4992727;28;97094;-81
2022/06/11 00:04:43;;;;;;;13.98;12.77;;;;;;;18.69;51.98;100805.56;4988396;28;96926;-81
2022/06/11 00:07:13;;;;;;;13.95;12.50;;;;;;;18.53;52.14;100784.38;5023160;28;97300;-84
2022/06/11 00:09:40;;;;;;;15.38;13.95;;;;;;;18.47;51.79;100782.06;4990402;28;101274;-81
2022/06/11 00:12:07;;;;;;;17.48;13.80;;;;;;;18.52;52.43;100801.25;5011060;28;97016;-81
2022/06/11 00:14:34;;;;;;;14.68;13.18;;;;;;;18.60;51.87;100809.63;5007005;28;96998;-82
2022/06/11 00:17:00;;;;;;;13.43;12.13;;;;;;;18.36;52.29;100785.38;5016153;28;97777;-81
2022/06/11 00:19:27;;;;;;;13.65;12.32;;;;;;;18.40;52.49;100810.81;4999301;28;101094;-82
2022/06/11 00:21:54;;;;;;;18.55;13.60;;;;;;;18.21;52.98;100792.44;4999963;28;96793;-82
2022/06/11 00:24:21;;;;;;;19.35;14.30;;;;;;;18.42;52.59;100810.75;5009397;28;97696;-84
2022/06/11 00:26:48;;;;;;;14.18;12.85;;;;;;;18.33;52.86;100799.69;5009031;28;101521;-82
2022/06/11 00:29:15;;;;;;;12.93;11.63;;;;;;;18.26;52.53;100808.97;5015915;28;100813;-81
2022/06/11 00:31:41;;;;;;;16.42;12.50;;;;;;;18.32;52.87;100807.75;5031987;27;96976;-82
2022/06/11 00:34:06;;;;;;;14.35;12.90;;;;;;;18.21;53.20;100800.41;4995616;28;97222;-85
2022/06/11 00:36:32;;;;;;;13.50;12.30;;;;;;;18.09;53.06;100787.81;4995714;28;101129;-83
2022/06/11 00:38:58;;;;;;;16.27;11.95;;;;;;;18.15;53.00;100803.44;5008873;28;101920;-82
2022/06/11 00:41:26;;;;;;;13.88;12.57;;;;;;;17.95;53.07;100762.09;5002182;28;96776;-82
2022/06/11 00:43:53;;;;;;;17.48;12.98;;;;;;;18.17;53.04;100811.31;4993997;28;97489;-82
2022/06/11 00:46:53;;;;;;;13.32;11.95;;;;;;;18.14;53.03;100809.69;4997841;28;101340;-82
2022/06/11 00:49:56;;;;;;;13.85;12.55;;;;;;;18.06;53.60;100809.25;4982707;28;101622;-84
2022/06/11 00:52:33;;;;;;;18.08;12.35;;;;;;;17.89;53.51;100796.97;4993918;28;96802;-83
2022/06/11 00:55:05;;;;;;;13.32;11.95;;;;;;;18.00;53.33;100805.16;5010707;27;96877;-82
2022/06/11 00:57:34;;;;;;;13.43;12.13;;;;;;;17.96;53.41;100810.75;4992827;28;101531;-82
2022/06/11 01:00:05;;;;;;;12.93;11.88;;;;;;;17.79;53.65;100785.13;5015932;28;97924;-82
2022/06/11 01:02:31;;;;;;;13.15;11.85;;;;;;;17.81;54.21;100805.34;5003287;28;97038;-83
2022/06/11 01:05:00;;;;;;;13.80;12.40;;;;;;;17.85;53.47;100792.75;5012522;28;97326;-82
2022/06/11 01:07:32;;;;;;;15.05;11.95;;;;;;;17.79;54.06;100804.56;4981600;28;101293;-82
2022/06/11 01:10:06;;;;;;;15.95;13.30;;;;;;;17.80;54.18;100806.31;5025345;28;97346;-82
2022/06/11 01:12:39;;;;;;;14.73;13.05;;;;;;;17.77;54.68;100800.25;5013492;28;97080;-81
2022/06/11 01:15:08;;;;;;;13.93;12.52;;;;;;;17.78;54.59;100815.31;4995405;28;96969;-82
2022/06/11 01:18:12;;;;;;;13.73;12.25;;;;;;;17.61;55.29;100813.53;5009469;28;101060;-82
2022/06/11 01:21:05;;;;;;;13.43;11.95;;;;;;;17.63;55.06;100799.25;5024086;28;101306;-81
2022/06/11 01:23:33;;;;;;;13.45;12.20;;;;;;;17.37;55.55;100782.13;5012568;28;96776;-82
2022/06/11 01:26:37;;;;;;;13.13;11.93;;;;;;;17.50;55.43;100806.16;5022795;28;96865;-82
2022/06/11 01:29:11;;;;;;;13.35;11.95;;;;;;;17.51;55.52;100807.91;5013789;28;97922;-82
2022/06/11 01:31:51;;;;;;;13.95;12.65;;;;;;;17.50;55.86;100813.28;5025505;28;100294;-82
2022/06/11 01:34:30;;;;;;;13.10;11.80;;;;;;;17.42;56.22;100805.72;5032016;28;97248;-81
2022/06/11 01:37:06;;;;;;;14.93;11.90;;;;;;;17.40;56.07;100810.28;5022389;27;97408;-81
2022/06/11 01:39:43;;;;;;;13.20;11.98;;;;;;;17.43;56.14;100800.34;5011910;28;101390;-81
2022/06/11 01:42:21;;;;;;;13.48;12.27;;;;;;;17.39;56.32;100808.56;4995932;28;101255;-82
2022/06/11 01:45:10;;;;;;;13.23;12.02;;;;;;;17.47;56.30;100809.00;4988337;28;97637;-81
2022/06/11 01:47:36;;;;;;;12.55;11.40;;;;;;;17.45;56.19;100799.41;5004126;28;97084;-82
2022/06/11 01:50:04;;;;;;;12.32;11.20;;;;;;;17.55;55.73;100809.44;5003094;28;101167;-83
2022/06/11 01:53:00;;;;;;;13.65;12.50;;;;;;;17.50;56.07;100811.47;5008644;28;100969;-82
2022/06/11 01:55:34;;;;;;;13.52;11.95;;;;;;;17.29;56.45;100802.06;5001368;28;97018;-82
2022/06/11 01:58:18;;;;;;;13.23;12.07;;;;;;;17.33;56.49;100807.09;5001971;28;96808;-82
2022/06/11 02:00:55;;;;;;;12.95;11.85;;;;;;;17.32;56.54;100809.84;4984545;28;101428;-81
2022/06/11 02:03:34;;;;;;;14.30;11.65;;;;;;;17.22;57.09;100803.31;5015523;28;97476;-82
2022/06/11 02:06:14;;;;;;;13.40;12.02;;;;;;;17.30;56.30;100806.41;5013516;28;97385;-83
2022/06/11 02:09:00;;;;;;;13.37;12.03;;;;;;;17.22;57.09;100814.81;5020320;28;96919;-81
2022/06/11 02:11:34;;;;;;;12.90;11.60;;;;;;;17.26;56.71;100807.53;4995734;28;101106;-82
2022/06/11 02:14:12;;;;;;;13.25;11.65;;;;;;;17.22;56.81;100805.97;5030989;28;97958;-82
2022/06/11 02:16:47;;;;;;;15.80;13.60;;;;;;;17.14;56.78;100807.25;5026736;28;96950;-82
2022/06/11 02:19:16;;;;;;;13.88;12.60;;;;;;;17.15;56.99;100803.63;5011109;28;96745;-82
2022/06/11 02:21:54;;;;;;;12.77;11.57;;;;;;;16.96;56.88;100779.06;5011966;28;101343;-82
2022/06/11 02:24:32;;;;;;;12.75;11.43;;;;;;;16.96;57.25;100806.44;5004375;28;100019;-82
2022/06/11 02:27:03;;;;;;;15.68;12.23;;;;;;;16.91;57.23;100797.84;4991966;28;96760;-82
2022/06/11 02:29:31;;;;;;;17.83;12.80;;;;;;;16.94;57.06;100799.50;4998273;28;96988;-82
2022/06/11 02:32:05;;;;;;;13.60;11.52;;;;;;;17.04;56.86;100806.00;4989757;28;102337;-82
2022/06/11 02:34:31;;;;;;;13.13;11.40;;;;;;;16.75;56.81;100775.69;5007300;28;101065;-81
2022/06/11 02:37:08;;;;;;;14.98;12.98;;;;;;;16.74;57.38;100787.25;5014142;28;96793;-82
2022/06/11 02:39:36;;;;;;;13.98;12.68;;;;;;;16.82;57.14;100813.41;4995085;28;96701;-82
2022/06/11 02:42:05;;;;;;;13.48;12.07;;;;;;;16.88;57.33;100824.53;4979031;28;100899;-83
2022/06/11 02:44:31;;;;;;;13.55;12.43;;;;;;;16.84;57.07;100814.16;5022481;28;97626;-82
2022/06/11 02:46:56;;;;;;;13.70;12.50;;;;;;;16.78;57.33;100820.63;5013709;28;96764;-82
2022/06/11 02:49:23;;;;;;;14.85;12.73;;;;;;;16.78;57.61;100827.72;5011253;28;96976;-83
2022/06/11 02:51:51;;;;;;;13.63;12.30;;;;;;;16.83;57.32;100826.56;5008211;28;101235;-83
2022/06/11 02:54:18;;;;;;;13.85;12.45;;;;;;;16.84;57.50;100838.91;4992820;28;101820;-85
2022/06/11 02:56:45;;;;;;;17.05;12.27;;;;;;;16.87;57.18;100829.91;4997808;28;97378;-82
2022/06/11 02:59:10;;;;;;;12.13;11.02;;;;;;;16.81;57.55;100828.44;4998406;28;97024;-82
2022/06/11 03:01:36;;;;;;;14.20;12.75;;;;;;;16.67;58.00;100836.22;5017487;28;97587;-82
2022/06/11 03:04:02;;;;;;;13.63;12.27;;;;;;;16.69;57.82;100831.69;4998861;28;101151;-83
2022/06/11 03:06:29;;;;;;;17.15;12.77;;;;;;;16.68;58.09;100835.28;5011563;28;97093;-83
2022/06/11 03:08:56;;;;;;;13.65;12.45;;;;;;;16.67;58.06;100839.72;5001288;28;96872;-82
2022/06/11 03:11:21;;;;;;;13.05;11.80;;;;;;;16.66;57.89;100834.50;5011774;28;101510;-82
2022/06/11 03:13:47;;;;;;;14.15;12.35;;;;;;;16.59;58.19;100823.34;5009949;28;101248;-82
2022/06/11 03:16:13;;;;;;;13.95;12.75;;;;;;;16.69;57.89;100835.19;5002671;28;98168;-81
2022/06/11 03:18:39;;;;;;;14.90;13.32;;;;;;;16.66;57.97;100811.50;5017421;28;97271;-82
2022/06/11 03:21:05;;;;;;;13.85;12.55;;;;;;;16.80;58.05;100842.63;4997529;28;101534;-82
2022/06/11 03:23:30;;;;;;;13.95;12.55;;;;;;;16.95;57.58;100835.66;5000548;28;99759;-83
2022/06/11 03:25:57;;;;;;;13.70;12.35;;;;;;;17.04;57.82;100837.81;5010651;27;97718;-83
2022/06/11 03:28:26;;;;;;;14.23;12.68;;;;;;;17.10;57.47;100845.47;4995630;28;96872;-83
2022/06/11 03:30:52;;;;;;;13.98;12.65;;;;;;;17.02;57.51;100838.88;5006798;28;101784;-82
2022/06/11 03:33:18;;;;;;;14.38;12.90;;;;;;;17.15;57.31;100840.78;5031395;27;97384;-84
2022/06/11 03:35:46;;;;;;;13.77;12.45;;;;;;;17.26;57.52;100857.94;5017853;28;96678;-82
2022/06/11 03:38:12;;;;;;;14.32;12.85;;;;;;;17.29;57.24;100849.81;5031866;28;97045;-82
2022/06/11 03:40:38;;;;;;;15.13;13.00;;;;;;;17.20;57.21;100829.94;5000355;28;101439;-82
2022/06/11 03:43:04;;;;;;;13.80;12.57;;;;;;;17.33;57.09;100844.22;5002754;28;101118;-82
2022/06/11 03:45:30;;;;;;;14.15;12.95;;;;;;;17.74;56.40;100858.84;4999188;28;97210;-83
2022/06/11 03:47:56;;;;;;;15.55;13.13;;;;;;;17.75;56.34;100863.22;5016950;28;97102;-82
2022/06/11 03:50:26;;;;;;;16.90;13.35;;;;;;;17.68;56.59;100859.19;5003073;28;101447;-82
2022/06/11 03:52:53;;;;;;;27.67;13.15;;;;;;;17.75;56.61;100863.22;5007328;28;101883;-82
2022/06/11 03:55:19;;;;;;;14.38;12.88;;;;;;;17.94;55.66;100866.59;5031427;28;96745;-84
2022/06/11 03:57:45;;;;;;;14.57;12.30;;;;;;;17.85;56.17;100873.25;5032449;28;96704;-81
2022/06/11 04:00:14;;;;;;;15.27;11.90;;;;;;;17.85;56.05;100854.69;5000153;28;101192;-82
2022/06/11 04:02:40;;;;;;;14.00;12.57;;;;;;;18.04;56.07;100882.88;4983484;28;101479;-81
2022/06/11 04:05:06;;;;;;;14.27;12.88;;;;;;;18.03;55.83;100855.44;5025346;28;96781;-82
2022/06/11 04:07:32;;;;;;;13.15;12.05;;;;;;;18.16;55.61;100871.56;4999141;28;96877;-84
2022/06/11 04:09:58;;;;;;;14.07;12.60;;;;;;;18.35;55.40;100868.69;5020780;28;97645;-82
2022/06/11 04:12:23;;;;;;;17.67;13.13;;;;;;;18.22;54.88;100823.38;5011455;28;101521;-85
2022/06/11 04:14:50;;;;;;;16.30;12.73;;;;;;;18.59;54.66;100868.19;5010708;28;97139;-84
2022/06/11 04:17:24;;;;;;;14.88;13.25;;;;;;;18.70;54.58;100871.97;4989678;28;97732;-81
2022/06/11 04:19:50;;;;;;;14.02;12.80;;;;;;;18.53;54.34;100851.69;5010480;28;101191;-82
2022/06/11 04:22:17;;;;;;;14.00;12.82;;;;;;;18.87;54.23;100875.44;4998457;28;101236;-82
2022/06/11 04:24:43;;;;;;;14.85;12.50;;;;;;;18.90;54.09;100877.91;5030830;28;96808;-82
2022/06/11 04:27:11;;;;;;;13.60;12.50;;;;;;;18.66;54.14;100833.19;5012801;28;96823;-82
2022/06/11 04:29:40;;;;;;;16.98;13.15;;;;;;;19.08;53.96;100870.63;4998948;28;101666;-82
2022/06/11 04:32:08;;;;;;;14.32;13.23;;;;;;;19.05;53.69;100845.06;5014714;28;100876;-83
2022/06/11 04:34:34;;;;;;;14.02;12.82;;;;;;;19.27;53.61;100867.69;5014415;28;96970;-82
2022/06/11 04:37:00;;;;;;;14.38;12.82;;;;;;;19.34;53.44;100874.34;5025142;28;97005;-82
2022/06/11 04:39:28;;;;;;;14.35;12.77;;;;;;;19.41;53.17;100851.72;5026319;28;97744;-86
2022/06/11 04:41:55;;;;;;;13.77;12.55;;;;;;;19.59;52.92;100869.19;5013658;28;102020;-82
2022/06/11 04:44:21;;;;;;;14.23;12.93;;;;;;;19.59;52.57;100869.19;5029317;28;97143;-82
2022/06/11 04:46:47;;;;;;;17.02;12.52;;;;;;;19.59;52.36;100831.94;5014443;28;97845;-82
2022/06/11 04:49:12;;;;;;;13.75;12.65;;;;;;;19.90;52.26;100854.81;5010201;28;100000;-82
2022/06/11 04:51:38;;;;;;;15.02;12.63;;;;;;;20.26;51.61;100865.84;5032476;28;97695;-84
2022/06/11 04:54:04;;;;;;;14.60;13.20;;;;;;;20.32;51.33;100863.63;4995216;28;96978;-83
2022/06/11 04:56:30;;;;;;;15.18;12.90;;;;;;;20.56;50.68;100871.81;5012698;28;97393;-84
2022/06/11 04:58:57;;;;;;;14.10;13.07;;;;;;;20.67;50.50;100851.59;5010494;28;101238;-83
2022/06/11 05:01:23;;;;;;;14.43;13.05;;;;;;;20.72;49.79;100847.66;5016824;28;97252;-83
2022/06/11 05:03:49;;;;;;;16.55;13.30;;;;;;;21.02;49.31;100854.50;4999770;28;97325;-83
2022/06/11 05:06:20;;;;;;;13.70;12.43;;;;;;;20.99;49.01;100841.38;5001469;28;96890;-83
2022/06/11 05:08:46;;;;;;;14.10;12.88;;;;;;;21.37;48.67;100870.75;4994666;28;101138;-83
2022/06/11 05:11:12;;;;;;;14.07;12.73;;;;;;;21.56;48.54;100878.31;5015378;28;98413;-83
2022/06/11 05:13:37;;;;;;;14.10;13.07;;;;;;;21.69;48.41;100870.28;4999061;28;97142;-83
2022/06/11 05:16:04;;;;;;;14.73;13.50;;;;;;;21.91;48.26;100875.78;4997707;28;97758;-83
2022/06/11 05:18:33;;;;;;;14.57;13.50;;;;;;;22.05;47.90;100872.09;4996846;28;101185;-83
2022/06/11 05:20:58;;;;;;;21.50;14.30;;;;;;;22.18;47.68;100856.03;5011668;28;97892;-82
2022/06/11 05:23:23;;;;;;;13.88;12.57;;;;;;;22.25;47.23;100846.59;5016237;28;97377;-82
2022/06/11 05:25:50;;;;;;;14.18;12.43;;;;;;;22.50;46.77;100866.16;5015860;28;97010;-83
2022/06/11 05:28:28;;;;;;;14.07;12.85;;;;;;;22.50;46.31;100852.75;5000084;28;98055;-83
2022/06/11 05:30:55;;;;;;;14.57;13.15;;;;;;;22.66;46.66;100876.53;5013275;28;101427;-82
2022/06/11 05:33:21;;;;;;;13.25;12.35;;;;;;;22.76;45.96;100873.03;5014839;28;97210;-82
2022/06/11 05:35:47;;;;;;;15.65;12.90;;;;;;;22.85;45.86;100859.94;4998379;28;97157;-83
2022/06/11 05:38:16;;;;;;;14.48;13.00;;;;;;;22.95;45.23;100877.00;5008028;28;101509;-83
2022/06/11 05:40:44;;;;;;;14.15;12.77;;;;;;;23.06;45.58;100879.69;5010870;28;101375;-83
2022/06/11 05:43:11;;;;;;;14.18;12.82;;;;;;;23.21;45.44;100875.84;4999500;28;96742;-82
2022/06/11 05:45:52;;;;;;;14.55;13.35;;;;;;;23.31;44.63;100859.91;5011238;28;96904;-83
2022/06/11 05:48:20;;;;;;;13.93;12.70;;;;;;;23.82;44.19;100867.44;5016441;28;98112;-83
2022/06/11 05:50:48;;;;;;;14.35;12.85;;;;;;;24.42;43.12;100877.75;5031491;28;98481;-83
2022/06/11 05:53:16;;;;;;;15.60;14.40;;;;;;;25.14;41.26;100869.84;4987511;28;96785;-82
2022/06/11 05:55:44;;;;;;;17.00;13.90;;;;;;;25.40;40.32;100864.91;5005163;28;97810;-83
2022/06/11 05:58:24;;;;;;;15.55;14.43;;;;;;;25.93;40.00;100871.88;5009635;28;101725;-83
2022/06/11 06:00:54;;;;;;;15.48;14.05;;;;;;;26.85;37.67;100872.38;5015237;28;101921;-83
2022/06/11 06:03:19;;;;;;;13.57;12.50;;;;;;;27.40;37.21;100870.81;5008902;28;97042;-83
2022/06/11 06:05:45;;;;;;;13.93;12.75;;;;;;;27.99;36.02;100873.09;5028294;28;97981;-84
2022/06/11 06:08:11;;;;;;;13.75;12.75;;;;;;;28.93;35.17;100870.91;5013101;28;101652;-83
2022/06/11 06:10:36;;;;;;;14.73;13.50;;;;;;;29.65;34.10;100866.97;4989318;28;100824;-83
2022/06/11 06:13:45;;;;;;;12.75;11.95;;;;;;;29.80;33.37;100859.09;5015245;28;97713;-83
2022/06/11 06:15:50;;;;;;;13.20;11.93;;;;;;;30.68;32.30;100863.94;5018759;28;96930;-83
2022/06/11 06:18:15;;;;;;;13.32;12.27;;;;;;;31.45;31.68;100861.66;5011599;28;101174;-83
2022/06/11 06:20:40;;;;;;;14.60;13.35;;;;;;;32.03;30.41;100867.69;5010881;28;97598;-83
2022/06/11 06:23:06;;;;;;;13.20;12.40;;;;;;;32.23;30.22;100863.47;5011091;28;97309;-83
2022/06/11 06:25:31;;;;;;;12.55;11.75;;;;;;;32.85;29.64;100859.75;5005365;28;97127;-86
2022/06/11 06:27:57;;;;;;;13.00;12.05;;;;;;;33.32;29.04;100866.75;5003695;28;101956;-83
2022/06/11 06:30:22;;;;;;;12.38;11.57;;;;;;;33.79;28.30;100870.94;4996013;28;101288;-84
2022/06/11 06:32:48;;;;;;;12.38;11.57;;;;;;;33.87;28.25;100845.47;4991588;28;97150;-83
2022/06/11 06:35:13;;;;;;;12.88;11.95;;;;;;;34.23;27.72;100866.41;5010276;28;97695;-84
2022/06/11 06:37:39;;;;;;;13.15;11.98;;;;;;;34.53;27.84;100867.13;5015879;28;100592;-84
2022/06/11 06:40:05;;;;;;;13.20;12.10;;;;;;;35.11;26.93;100873.31;5010362;28;101270;-86
2022/06/11 06:42:31;;;;;;;13.05;12.15;;;;;;;35.19;26.84;100860.53;4993412;28;96821;-88
2022/06/11 06:44:58;;;;;;;12.52;11.73;;;;;;;35.34;26.41;100864.84;5019961;28;97164;-88
2022/06/11 06:47:23;;;;;;;12.75;11.90;;;;;;;35.68;26.31;100874.03;5010078;28;101127;-86
2022/06/11 06:49:49;;;;;;;12.57;11.88;;;;;;;36.56;25.87;100875.97;5030511;28;97389;-86
2022/06/11 06:52:14;;;;;;;13.10;12.10;;;;;;;36.50;25.65;100863.94;5017477;28;96788;-85
2022/06/11 06:54:39;;;;;;;13.00;12.15;;;;;;;36.97;24.71;100869.41;5007987;28;97313;-86
2022/06/11 06:57:05;;;;;;;14.02;13.10;;;;;;;37.17;24.18;100870.25;5012656;28;101660;-86
2022/06/11 06:59:30;;;;;;;13.27;12.38;;;;;;;36.95;24.63;100861.44;5013654;28;101119;-89
2022/06/11 07:01:56;;;;;;;13.32;12.15;;;;;;;37.30;24.70;100872.97;5027781;28;97254;-87
2022/06/11 07:04:21;;;;;;;12.73;11.82;;;;;;;37.55;24.23;100869.53;5023376;28;97487;-86
2022/06/11 07:06:47;;;;;;;13.43;12.52;;;;;;;37.89;23.68;100859.28;5002095;28;101543;-85
2022/06/11 07:09:12;;;;;;;14.07;13.23;;;;;;;37.74;23.91;100848.59;5026251;28;98480;-82
2022/06/11 07:11:38;;;;;;;13.90;13.07;;;;;;;38.17;23.38;100867.16;5015249;28;97016;-90
2022/06/11 07:14:04;;;;;;;12.95;12.15;;;;;;;38.19;22.97;100867.75;4989607;28;97354;-88
2022/06/11 07:16:33;;;;;;;13.48;12.57;;;;;;;38.08;22.72;100858.34;5009477;28;97546;-87
2022/06/11 07:18:59;;;;;;;;;;;;;;;38.09;23.68;100860.03;5010651;28;101365;-88
2022/06/11 07:21:30;;;;;;;13.88;12.98;;;;;;;38.18;23.31;100858.69;5000291;28;97279;-90
2022/06/11 07:24:02;;;;;;;13.35;12.45;;;;;;;38.58;22.88;100865.81;4993009;28;97531;-89
2022/06/11 07:26:33;;;;;;;13.60;12.60;;;;;;;38.87;22.75;100854.19;4997785;28;100806;-88
2022/06/11 07:29:02;;;;;;;13.15;12.32;;;;;;;38.86;21.87;100849.72;4996074;28;101475;-88
2022/06/11 07:31:30;;;;;;;14.02;12.63;;;;;;;38.69;21.75;100832.16;4997425;28;97300;-87
2022/06/11 07:33:56;;;;;;;13.30;12.25;;;;;;;38.84;22.17;100853.75;5010107;28;96793;-79
2022/06/11 07:36:21;;;;;;;12.75;11.88;;;;;;;39.25;21.27;100849.56;5012927;28;98037;-87
2022/06/11 07:38:47;;;;;;;13.00;12.20;;;;;;;39.14;21.97;100851.16;5023371;28;97453;-81
2022/06/11 07:41:12;;;;;;;13.35;12.07;;;;;;;38.58;22.40;100844.72;5009066;28;97208;-83
2022/06/11 07:43:38;;;;;;;13.75;12.75;;;;;;;38.77;22.67;100848.31;4989441;28;96908;-83
2022/06/11 07:46:04;;;;;;;12.90;12.20;;;;;;;39.22;21.69;100853.59;5026856;28;97601;-83
2022/06/11 07:48:29;;;;;;;14.20;13.18;;;;;;;38.92;21.81;100856.22;5025061;28;97475;-81
2022/06/11 07:50:55;;;;;;;13.50;12.38;;;;;;;39.23;21.19;100849.78;4999464;28;96935;-83
2022/06/11 07:53:21;;;;;;;13.63;12.68;;;;;;;38.91;21.85;100852.66;5034079;28;96886;-86
2022/06/11 07:55:48;;;;;;;14.95;13.82;;;;;;;39.05;21.46;100849.78;5024622;28;97465;-83
2022/06/11 07:58:16;;;;;;;14.07;13.23;;;;;;;39.59;21.42;100853.59;5014385;28;101182;-81
2022/06/11 08:00:44;;;;;;;14.70;13.70;;;;;;;39.61;21.92;100854.19;4994758;28;97688;-79
2022/06/11 08:03:10;;;;;;;15.35;13.98;;;;;;;38.70;22.18;100853.03;5011123;28;97121;-82
2022/06/11 08:05:36;;;;;;;16.55;13.60;;;;;;;39.02;21.95;100847.50;5010990;28;101014;-77
2022/06/11 08:08:04;;;;;;;14.02;13.13;;;;;;;39.06;21.79;100849.53;5002987;28;101533;-77
2022/06/11 08:10:30;;;;;;;14.98;13.98;;;;;;;38.93;21.85;100846.94;5009782;28;97242;-80
2022/06/11 08:12:56;;;;;;;14.70;13.88;;;;;;;38.88;22.27;100849.53;5045445;27;96940;-79
2022/06/11 08:15:22;;;;;;;13.95;13.05;;;;;;;39.16;20.87;100841.63;5011687;28;101432;-80
2022/06/11 08:17:48;;;;;;;14.23;13.32;;;;;;;39.39;21.12;100857.44;5001257;28;97881;-78
2022/06/11 08:20:20;;;;;;;14.85;13.68;;;;;;;39.56;20.90;100838.44;5024801;28;97151;-79
2022/06/11 08:22:45;;;;;;;14.05;13.07;;;;;;;39.57;19.53;100836.53;5008114;28;97006;-78
2022/06/11 08:25:11;;;;;;;13.65;12.88;;;;;;;38.71;20.78;100846.47;5008746;28;97709;-77
2022/06/11 08:27:36;;;;;;;14.45;13.57;;;;;;;38.46;20.80;100850.09;5024949;28;97320;-78
2022/06/11 08:30:03;;;;;;;14.00;13.20;;;;;;;38.83;21.03;100838.34;5020789;28;97737;-77
2022/06/11 08:32:29;;;;;;;13.18;12.13;;;;;;;39.02;20.26;100848.31;5017182;28;97590;-77
2022/06/11 08:34:54;;;;;;;13.63;12.82;;;;;;;38.83;19.88;100841.09;5018985;28;101578;-78
2022/06/11 08:37:20;;;;;;;13.88;12.95;;;;;;;39.10;20.13;100844.44;5009670;28;98438;-78
2022/06/11 08:39:45;;;;;;;14.02;13.13;;;;;;;39.12;20.36;100837.63;5010065;28;100418;-78
2022/06/11 08:42:43;;;;;;;13.52;12.68;;;;;;;38.60;20.42;100842.56;5028558;28;96895;-79
2022/06/11 08:45:12;;;;;;;12.85;12.05;;;;;;;38.67;20.28;100840.63;4972860;28;97726;-79
2022/06/11 08:47:42;;;;;;;14.40;13.40;;;;;;;38.04;21.00;100836.00;5006614;28;99527;-77
2022/06/11 08:50:12;;;;;;;13.98;12.85;;;;;;;38.06;20.91;100846.78;5004105;28;97417;-77
2022/06/11 08:52:38;;;;;;;14.35;13.30;;;;;;;37.62;22.17;100831.19;5023855;28;97247;-77
2022/06/11 08:55:04;;;;;;;14.13;13.20;;;;;;;35.25;24.30;100827.81;5023083;28;97507;-77
2022/06/11 08:57:55;;;;;;;13.70;12.70;;;;;;;35.60;23.32;100842.28;5003895;28;97501;-79
2022/06/11 09:00:27;;;;;;;13.50;12.68;;;;;;;35.70;24.21;100832.91;5004592;28;97605;-83
2022/06/11 09:03:09;;;;;;;13.70;12.90;;;;;;;34.89;23.77;100838.91;5006278;28;98310;-79
2022/06/11 09:05:59;;;;;;;12.77;11.98;;;;;;;35.12;23.48;100809.50;5004957;28;101391;-76
2022/06/11 09:08:50;;;;;;;12.38;11.48;;;;;;;35.07;24.65;100832.97;5019169;28;97425;-77
2022/06/11 09:11:51;;;;;;;12.18;11.38;;;;;;;34.55;25.48;100810.56;5006094;28;98130;-80
2022/06/11 09:14:20;;;;;;;12.35;11.60;;;;;;;34.51;25.66;100838.41;5009298;28;96996;-78
2022/06/11 09:17:11;;;;;;;11.77;10.98;;;;;;;34.69;24.69;100838.78;5013850;28;100497;-79
2022/06/11 09:19:52;;;;;;;12.13;11.40;;;;;;;34.09;25.96;100832.75;5003009;28;101026;-78
2022/06/11 09:22:54;;;;;;;11.50;10.77;;;;;;;33.65;25.74;100830.97;5021619;28;98366;-78
2022/06/11 09:25:32;;;;;;;12.30;11.45;;;;;;;33.65;24.45;100824.69;5022231;28;97604;-78
2022/06/11 09:28:20;;;;;;;12.00;11.27;;;;;;;32.81;25.17;100830.38;5023677;28;98831;-77
2022/06/11 09:30:53;;;;;;;11.43;10.73;;;;;;;32.47;26.75;100804.56;5008307;28;101128;-75
2022/06/11 09:33:22;;;;;;;11.70;10.90;;;;;;;32.12;26.30;100822.31;5007294;28;96850;-77
2022/06/11 09:36:01;;;;;;;12.55;11.52;;;;;;;32.56;25.50;100813.50;5002003;28;97474;-77
2022/06/11 09:38:42;;;;;;;13.02;12.05;;;;;;;31.97;25.54;100823.09;5017902;28;97410;-79
2022/06/11 09:41:10;;;;;;;11.27;10.48;;;;;;;31.42;26.59;100815.91;5020418;28;97731;-77
2022/06/11 09:43:47;;;;;;;11.32;10.52;;;;;;;30.68;28.19;100785.38;5019846;28;97791;-78
2022/06/11 09:46:36;;;;;;;12.50;11.63;;;;;;;30.70;28.35;100810.47;5020302;28;98357;-77
2022/06/11 09:49:25;;;;;;;12.50;11.70;;;;;;;30.33;28.11;100784.75;5020022;28;98310;-79
2022/06/11 09:52:05;;;;;;;12.60;11.70;;;;;;;30.55;27.69;100807.59;5007118;28;100978;-78
2022/06/11 09:54:44;;;;;;;12.30;11.30;;;;;;;30.53;29.58;100811.50;5004094;28;98070;-77
2022/06/11 09:57:12;;;;;;;13.10;11.95;;;;;;;30.62;29.16;100780.66;5025081;28;96838;-77
2022/06/11 09:59:59;;;;;;;12.65;11.68;;;;;;;30.23;29.52;100775.97;5014448;27;98813;-80
2022/06/11 10:02:48;;;;;;;13.15;11.68;;;;;;;30.48;26.94;100795.75;5010901;28;101043;-76
2022/06/11 10:05:28;;;;;;;12.70;11.80;;;;;;;30.08;27.34;100774.88;5027349;27;96923;-76
2022/06/11 10:07:58;;;;;;;11.57;10.80;;;;;;;30.12;27.54;100800.63;5008896;28;96882;-76
2022/06/11 10:10:31;;;;;;;13.25;11.93;;;;;;;29.83;27.49;100806.50;5020681;28;97599;-74
2022/06/11 10:13:03;;;;;;;12.13;11.13;;;;;;;29.64;28.54;100780.56;5024915;27;97356;-74
2022/06/11 10:15:34;;;;;;;12.30;11.30;;;;;;;29.55;28.91;100798.59;5025736;28;96970;-73
2022/06/11 10:18:06;;;;;;;12.77;11.77;;;;;;;29.25;28.66;100781.94;5020484;28;97071;-74
2022/06/11 10:20:45;;;;;;;11.80;11.00;;;;;;;29.28;29.22;100800.53;5025125;28;97388;-74
2022/06/11 10:23:36;;;;;;;10.95;10.25;;;;;;;29.49;28.78;100816.31;5027263;27;97866;-74
2022/06/11 10:26:16;;;;;;;11.60;10.80;;;;;;;29.07;30.53;100789.28;5006795;28;97303;-74
2022/06/11 10:28:50;;;;;;;11.93;11.05;;;;;;;29.28;29.83;100797.84;5022554;28;97282;-76
2022/06/11 10:31:19;;;;;;;11.13;10.05;;;;;;;29.22;29.32;100781.44;5013365;28;98338;-74
2022/06/11 10:34:31;;;;;;;10.77;9.70;;;;;;;28.91;28.88;100781.91;5002395;28;101080;-78
2022/06/11 10:37:12;;;;;;;11.60;10.90;;;;;;;28.67;29.23;100779.91;5001367;28;97212;-78
2022/06/11 10:39:42;;;;;;;11.70;11.00;;;;;;;28.59;31.23;100794.19;5003920;28;97727;-78
2022/06/11 10:42:15;;;;;;;12.77;11.68;;;;;;;28.41;31.17;100799.63;5004986;28;97718;-79
2022/06/11 10:44:51;;;;;;;11.38;10.52;;;;;;;28.64;31.14;100783.75;5015912;28;97419;-81
2022/06/11 10:47:38;;;;;;;10.65;9.95;;;;;;;28.83;30.33;100766.50;5038297;27;97335;-78
2022/06/11 10:50:09;;;;;;;11.35;10.65;;;;;;;28.92;30.58;100794.44;5020414;28;98370;-84
2022/06/11 10:52:41;;;;;;;10.43;9.55;;;;;;;28.35;30.82;100773.22;5030065;28;97774;-82
2022/06/11 10:55:10;;;;;;;10.30;9.50;;;;;;;28.76;30.27;100783.50;5026839;28;97898;-76
2022/06/11 10:57:36;;;;;;;11.40;9.90;;;;;;;29.04;30.06;100770.72;5009742;28;96889;-76
2022/06/11 11:00:37;;;;;;;10.70;9.80;;;;;;;29.28;29.85;100789.72;5007814;28;96848;-76
2022/06/11 11:03:14;;;;;;;10.98;10.07;;;;;;;28.94;29.46;100773.47;4959262;28;101049;-79
2022/06/11 11:05:49;;;;;;;11.02;9.98;;;;;;;28.91;30.32;100773.78;4996820;28;97968;-80
2022/06/11 11:08:14;;;;;;;10.57;9.77;;;;;;;28.87;29.54;100777.84;5007318;28;97025;-78
2022/06/11 11:10:44;;;;;;;10.70;9.90;;;;;;;28.80;29.26;100766.84;5011344;28;98496;-76
2022/06/11 11:13:28;;;;;;;11.15;10.00;;;;;;;28.60;28.76;100751.84;4998816;28;101890;-76
2022/06/11 11:16:15;;;;;;;10.80;10.02;;;;;;;28.76;28.98;100759.19;5010168;27;100977;-76
2022/06/11 11:18:50;;;;;;;10.60;9.80;;;;;;;28.81;29.62;100757.72;5011528;28;96754;-78
2022/06/11 11:21:19;;;;;;;10.75;9.93;;;;;;;29.04;29.25;100768.00;5025257;28;98347;-77
2022/06/11 11:23:48;;;;;;;10.68;9.88;;;;;;;29.06;28.54;100764.13;4995638;28;101302;-76
2022/06/11 11:26:35;;;;;;;10.48;9.77;;;;;;;28.86;29.65;100754.53;4995353;28;101492;-76